Time;durP1;ratioP1;P1;durP2;ratioP2;P2;SDS_P1;SDS_P2;PMS_P1;PMS_P2;Temp;Humidity;BMP_temperature;BMP_pressure;BME280_temperature;BME280_humidity;BME280_pressure;Samples;Min_cycle;Max_cycle;Signal;HPM_P1;HPM_P2
2022/03/26 00:02:17;;;;;;;122.68;68.22;;;6.70;98.50;;;;;;4965072;28;20046;-56
2022/03/26 00:04:43;;;;;;;128.68;71.40;;;6.70;98.70;;;;;;4986427;28;20048;-56
2022/03/26 00:07:09;;;;;;;140.43;73.57;;;6.70;98.80;;;;;;4987190;28;20038;-56
2022/03/26 00:09:35;;;;;;;135.15;73.32;;;6.80;99.20;;;;;;4980384;28;20050;-57
2022/03/26 00:12:01;;;;;;;147.20;75.15;;;6.80;99.60;;;;;;4970854;28;20042;-53
2022/03/26 00:14:27;;;;;;;154.27;78.32;;;6.80;99.80;;;;;;4952308;28;20092;-56
2022/03/26 00:16:53;;;;;;;162.27;85.72;;;6.80;99.90;;;;;;4967793;28;21057;-57
2022/03/26 00:19:19;;;;;;;153.65;80.75;;;6.90;99.90;;;;;;4982485;28;20034;-57
2022/03/26 00:21:47;;;;;;;159.13;83.20;;;6.90;99.90;;;;;;4987295;28;20121;-58
2022/03/26 00:24:14;;;;;;;154.50;80.28;;;6.90;99.90;;;;;;4978670;28;20056;-57
2022/03/26 00:26:40;;;;;;;167.43;85.75;;;6.90;99.90;;;;;;4986271;28;20540;-57
2022/03/26 00:29:08;;;;;;;143.50;77.03;;;6.90;99.90;;;;;;4995578;28;20034;-58
2022/03/26 00:31:36;;;;;;;140.50;76.93;;;6.90;99.90;;;;;;4987039;28;20200;-58
2022/03/26 00:34:01;;;;;;;143.75;77.63;;;6.90;99.90;;;;;;4983079;28;21350;-55
2022/03/26 00:36:27;;;;;;;165.60;82.93;;;6.90;99.90;;;;;;4953217;28;20081;-52
2022/03/26 00:38:53;;;;;;;156.10;80.80;;;6.90;99.90;;;;;;4986436;28;20065;-56
2022/03/26 00:41:18;;;;;;;155.85;79.82;;;7.00;99.90;;;;;;4975434;28;20065;-54
2022/03/26 00:43:44;;;;;;;171.85;89.53;;;7.00;99.90;;;;;;4976503;28;20049;-55
2022/03/26 00:46:13;;;;;;;161.20;87.53;;;7.00;99.90;;;;;;4986206;28;20671;-55
2022/03/26 00:48:38;;;;;;;163.02;84.25;;;7.10;99.90;;;;;;4970978;28;20030;-55
2022/03/26 00:51:04;;;;;;;168.48;88.88;;;7.10;99.90;;;;;;4986155;28;20096;-57
2022/03/26 00:53:30;;;;;;;162.98;80.65;;;7.10;99.90;;;;;;4990843;28;20038;-52
2022/03/26 00:55:56;;;;;;;169.85;89.55;;;7.10;99.90;;;;;;4981474;28;20034;-56
2022/03/26 00:58:22;;;;;;;168.35;90.25;;;7.20;99.90;;;;;;4980000;28;20050;-56
2022/03/26 01:00:48;;;;;;;163.05;85.53;;;7.20;99.90;;;;;;4985360;28;20060;-54
2022/03/26 01:03:16;;;;;;;146.98;77.30;;;7.20;99.90;;;;;;4995314;28;20054;-56
2022/03/26 01:05:43;;;;;;;149.30;79.05;;;7.20;99.90;;;;;;4966162;28;20773;-57
2022/03/26 01:08:09;;;;;;;149.50;80.93;;;7.10;99.90;;;;;;4984660;28;20045;-56
2022/03/26 01:10:35;;;;;;;163.32;83.50;;;7.10;99.90;;;;;;4979901;28;20050;-57
2022/03/26 01:13:00;;;;;;;167.75;85.78;;;7.10;99.90;;;;;;4986167;28;20038;-57
2022/03/26 01:15:26;;;;;;;161.30;84.82;;;7.00;99.90;;;;;;4984486;28;20307;-57
2022/03/26 01:17:52;;;;;;;156.93;80.03;;;7.00;99.90;;;;;;4987821;28;20042;-57
2022/03/26 01:20:18;;;;;;;156.40;79.05;;;7.00;99.90;;;;;;4981092;28;20041;-54
2022/03/26 01:22:44;;;;;;;131.43;67.30;;;6.90;99.90;;;;;;4985691;28;20218;-56
2022/03/26 01:25:11;;;;;;;139.32;75.47;;;6.80;99.90;;;;;;4982719;28;20129;-56
2022/03/26 01:27:37;;;;;;;142.88;75.90;;;6.80;99.90;;;;;;4979221;28;20050;-55
2022/03/26 01:30:04;;;;;;;136.98;71.60;;;6.70;99.90;;;;;;4979728;28;20046;-54
2022/03/26 01:32:30;;;;;;;137.65;72.25;;;6.70;99.90;;;;;;4978755;28;20480;-56
2022/03/26 01:34:56;;;;;;;140.55;72.35;;;6.60;99.90;;;;;;5005294;23;20042;-61
2022/03/26 01:37:21;;;;;;;144.52;73.55;;;6.60;99.90;;;;;;4989328;28;20157;-64
2022/03/26 01:39:47;;;;;;;130.50;72.32;;;6.40;99.90;;;;;;4988230;28;20525;-63
2022/03/26 01:42:13;;;;;;;135.15;71.10;;;6.50;99.90;;;;;;4991976;28;20529;-64
2022/03/26 01:44:39;;;;;;;132.13;71.18;;;6.50;99.90;;;;;;5000305;28;20096;-62
2022/03/26 01:47:05;;;;;;;132.05;70.57;;;6.40;99.90;;;;;;4987332;28;20042;-64
2022/03/26 01:49:32;;;;;;;134.85;73.13;;;6.40;99.90;;;;;;4994275;23;20128;-56
2022/03/26 01:51:58;;;;;;;128.20;69.55;;;6.30;99.90;;;;;;4949901;28;20323;-55
2022/03/26 01:54:25;;;;;;;127.00;67.60;;;6.30;99.90;;;;;;4971670;28;20042;-51
2022/03/26 01:56:51;;;;;;;135.18;69.20;;;6.30;99.90;;;;;;4972334;28;20126;-56
2022/03/26 01:59:17;;;;;;;138.60;71.55;;;6.30;99.90;;;;;;4956869;28;20094;-55
2022/03/26 02:01:43;;;;;;;135.23;71.53;;;6.20;99.90;;;;;;4961338;28;20054;-57
2022/03/26 02:04:09;;;;;;;143.70;75.75;;;6.20;99.90;;;;;;4974110;28;20049;-57
2022/03/26 02:06:39;;;;;;;139.35;74.65;;;6.20;99.90;;;;;;4960934;28;20117;-58
2022/03/26 02:09:08;;;;;;;141.05;72.28;;;6.20;99.90;;;;;;4977941;28;20041;-56
2022/03/26 02:11:37;;;;;;;141.48;73.05;;;6.20;99.90;;;;;;4969369;28;20105;-56
2022/03/26 02:14:03;;;;;;;133.18;72.00;;;6.00;99.90;;;;;;4958692;28;20484;-55
2022/03/26 02:16:31;;;;;;;150.10;77.47;;;6.00;99.90;;;;;;4956191;28;20502;-55
2022/03/26 02:18:58;;;;;;;141.45;73.32;;;6.00;99.90;;;;;;4971530;28;20096;-56
2022/03/26 02:21:24;;;;;;;135.60;69.15;;;6.00;99.90;;;;;;4962265;28;20035;-57
2022/03/26 02:23:52;;;;;;;143.13;72.97;;;5.90;99.90;;;;;;4963505;28;20046;-55
2022/03/26 02:26:25;;;;;;;152.45;78.68;;;5.90;99.90;;;;;;4974544;28;20050;-55
2022/03/26 02:28:53;;;;;;;164.20;87.85;;;5.90;99.90;;;;;;4969698;28;20622;-53
2022/03/26 02:31:19;;;;;;;155.82;84.65;;;5.90;99.90;;;;;;4969398;28;20510;-54
2022/03/26 02:33:45;;;;;;;156.05;84.85;;;5.80;99.90;;;;;;4966009;28;20046;-57
2022/03/26 02:36:12;;;;;;;169.63;89.75;;;5.80;99.90;;;;;;4961784;28;20542;-55
2022/03/26 02:38:37;;;;;;;164.75;87.40;;;5.80;99.90;;;;;;4976412;28;20030;-51
2022/03/26 02:41:04;;;;;;;150.65;79.28;;;5.80;99.90;;;;;;4976679;28;20549;-52
2022/03/26 02:43:30;;;;;;;186.02;90.57;;;5.80;99.90;;;;;;4971534;28;20976;-57
2022/03/26 02:45:56;;;;;;;174.15;91.20;;;5.70;99.90;;;;;;4978670;28;20049;-56
2022/03/26 02:48:22;;;;;;;170.05;89.85;;;5.70;99.90;;;;;;4978871;28;20042;-54
2022/03/26 02:50:48;;;;;;;180.90;90.65;;;5.70;99.90;;;;;;4953911;28;20419;-55
2022/03/26 02:53:14;;;;;;;156.63;81.75;;;5.60;99.90;;;;;;4956048;28;20199;-57
2022/03/26 02:55:40;;;;;;;156.88;80.97;;;5.60;99.90;;;;;;4972714;28;20169;-56
2022/03/26 02:58:07;;;;;;;169.65;88.45;;;5.50;99.90;;;;;;4975790;28;20047;-56
2022/03/26 03:00:38;;;;;;;159.80;81.78;;;5.50;99.90;;;;;;4976766;28;20045;-56
2022/03/26 03:03:06;;;;;;;153.77;81.03;;;5.50;99.90;;;;;;4970137;28;20247;-54
2022/03/26 03:05:33;;;;;;;151.45;79.72;;;5.50;99.90;;;;;;4967997;28;20046;-54
2022/03/26 03:08:00;;;;;;;144.02;76.45;;;5.50;99.90;;;;;;4954989;28;20074;-56
2022/03/26 03:10:26;;;;;;;138.40;73.07;;;5.50;99.90;;;;;;4971074;28;20104;-55
2022/03/26 03:12:51;;;;;;;167.80;83.90;;;5.50;99.90;;;;;;4974228;28;20050;-57
2022/03/26 03:15:17;;;;;;;158.65;82.97;;;5.50;99.90;;;;;;4981268;28;20072;-57
2022/03/26 03:17:45;;;;;;;154.88;78.85;;;5.50;99.90;;;;;;4981969;28;20050;-56
2022/03/26 03:20:12;;;;;;;147.73;75.15;;;5.50;99.90;;;;;;4981682;28;20038;-57
2022/03/26 03:22:38;;;;;;;153.00;77.70;;;5.40;99.90;;;;;;4978735;28;20377;-52
2022/03/26 03:25:08;;;;;;;147.45;76.13;;;5.40;99.90;;;;;;4982255;28;20670;-56
2022/03/26 03:27:34;;;;;;;143.45;73.03;;;5.40;99.90;;;;;;4974178;28;20046;-57
2022/03/26 03:29:59;;;;;;;142.13;74.38;;;5.30;99.90;;;;;;4959723;28;20045;-56
2022/03/26 03:32:26;;;;;;;138.60;69.80;;;5.40;99.90;;;;;;4975553;28;20070;-56
2022/03/26 03:34:52;;;;;;;139.07;68.75;;;5.30;99.90;;;;;;4974398;28;20046;-55
2022/03/26 03:37:18;;;;;;;120.05;62.55;;;5.30;99.90;;;;;;4977540;28;20042;-58
2022/03/26 03:39:44;;;;;;;123.90;64.60;;;5.30;99.90;;;;;;4970873;28;20039;-54
2022/03/26 03:42:11;;;;;;;128.60;66.70;;;5.30;99.90;;;;;;4979191;28;20097;-52
2022/03/26 03:44:37;;;;;;;128.43;64.50;;;5.20;99.90;;;;;;4981374;28;20042;-57
2022/03/26 03:47:03;;;;;;;115.70;59.15;;;5.10;99.90;;;;;;4975136;28;20525;-57
2022/03/26 03:49:31;;;;;;;129.50;65.20;;;5.10;99.90;;;;;;4964827;28;20050;-57
2022/03/26 03:52:01;;;;;;;110.80;58.17;;;5.10;99.90;;;;;;4952571;28;20089;-55
2022/03/26 03:54:27;;;;;;;129.77;65.45;;;5.10;99.90;;;;;;4980768;28;20145;-56
2022/03/26 03:56:52;;;;;;;131.88;64.45;;;5.00;99.90;;;;;;4969394;28;20487;-58
2022/03/26 03:59:18;;;;;;;123.75;65.70;;;5.00;99.90;;;;;;4962444;28;20046;-57
2022/03/26 04:01:44;;;;;;;126.93;65.65;;;5.00;99.90;;;;;;4974255;28;20034;-57
2022/03/26 04:04:10;;;;;;;127.47;64.78;;;4.90;99.90;;;;;;4960641;28;20125;-56
2022/03/26 04:06:36;;;;;;;136.43;67.63;;;5.00;99.90;;;;;;4968228;28;20137;-58
2022/03/26 04:09:02;;;;;;;148.07;72.90;;;5.10;99.90;;;;;;4974357;28;20043;-56
2022/03/26 04:11:28;;;;;;;145.88;72.32;;;5.00;99.90;;;;;;4986697;28;20053;-56
2022/03/26 04:13:54;;;;;;;132.85;69.03;;;5.00;99.90;;;;;;4976020;28;20074;-58
2022/03/26 04:16:20;;;;;;;142.98;72.07;;;5.00;99.90;;;;;;4974616;28;20049;-56
2022/03/26 04:18:46;;;;;;;133.63;67.43;;;5.00;99.90;;;;;;4970951;28;20038;-56
2022/03/26 04:21:12;;;;;;;144.80;71.32;;;5.00;99.90;;;;;;4965754;28;20311;-56
2022/03/26 04:23:38;;;;;;;144.05;71.05;;;5.00;99.90;;;;;;4974116;28;20121;-56
2022/03/26 04:26:04;;;;;;;137.60;67.72;;;5.00;99.90;;;;;;4977263;28;20086;-58
2022/03/26 04:28:30;;;;;;;142.38;72.70;;;5.00;99.90;;;;;;4977580;28;20038;-56
2022/03/26 04:30:56;;;;;;;145.57;73.40;;;5.00;99.90;;;;;;4970601;28;20423;-56
2022/03/26 04:33:21;;;;;;;155.10;75.30;;;5.00;99.90;;;;;;4979610;28;20046;-55
2022/03/26 04:35:47;;;;;;;139.77;71.22;;;5.00;99.90;;;;;;4979247;28;20043;-57
2022/03/26 04:38:13;;;;;;;158.98;74.93;;;5.00;99.90;;;;;;4971869;28;20073;-57
2022/03/26 04:40:39;;;;;;;161.68;77.70;;;5.10;99.90;;;;;;4958510;28;20342;-55
2022/03/26 04:43:05;;;;;;;145.57;73.22;;;5.10;99.90;;;;;;4978506;28;21332;-57
2022/03/26 04:45:32;;;;;;;133.02;68.38;;;5.10;99.90;;;;;;4979797;28;20046;-55
2022/03/26 04:47:58;;;;;;;124.07;65.85;;;5.10;99.90;;;;;;4973418;28;20306;-56
2022/03/26 04:50:24;;;;;;;118.25;59.95;;;5.00;99.90;;;;;;4976068;28;20065;-57
2022/03/26 04:52:50;;;;;;;132.35;65.72;;;5.00;99.90;;;;;;4976659;28;20062;-55
2022/03/26 04:55:18;;;;;;;129.02;65.70;;;5.00;99.90;;;;;;4971749;28;20042;-53
2022/03/26 04:57:51;;;;;;;137.13;68.25;;;4.90;99.90;;;;;;4975804;28;20624;-57
2022/03/26 05:00:18;;;;;;;130.90;65.18;;;4.90;99.90;;;;;;4975105;28;20045;-56
2022/03/26 05:02:45;;;;;;;131.63;66.80;;;4.90;99.90;;;;;;4976532;28;20076;-55
2022/03/26 05:05:12;;;;;;;138.95;68.05;;;4.90;99.90;;;;;;4982499;28;20038;-56
2022/03/26 05:07:47;;;;;;;141.20;68.82;;;4.90;99.90;;;;;;4979796;28;20108;-53
2022/03/26 05:10:27;;;;;;;144.98;70.25;;;4.80;99.90;;;;;;4965523;28;20082;-57
2022/03/26 05:12:53;;;;;;;127.55;65.60;;;4.80;99.90;;;;;;4967216;28;20043;-56
2022/03/26 05:15:21;;;;;;;131.02;66.57;;;4.80;99.90;;;;;;4989072;28;20044;-56
2022/03/26 05:17:47;;;;;;;127.40;65.35;;;4.80;99.90;;;;;;4962020;28;20614;-57
2022/03/26 05:20:14;;;;;;;142.38;69.13;;;4.80;99.90;;;;;;4962020;28;20129;-54
2022/03/26 05:22:47;;;;;;;134.07;69.32;;;4.80;99.90;;;;;;4972276;28;20165;-57
2022/03/26 05:25:15;;;;;;;147.77;72.18;;;4.80;99.90;;;;;;4965114;28;20116;-55
2022/03/26 05:27:49;;;;;;;122.20;64.20;;;4.70;99.90;;;;;;4965331;28;20054;-56
2022/03/26 05:30:16;;;;;;;124.15;64.30;;;4.70;99.90;;;;;;4973870;28;20452;-53
2022/03/26 05:32:42;;;;;;;126.43;66.50;;;4.70;99.90;;;;;;4968900;28;20042;-52
2022/03/26 05:35:13;;;;;;;110.97;60.30;;;4.60;99.90;;;;;;4968419;28;20042;-55
2022/03/26 05:37:44;;;;;;;127.28;67.60;;;4.60;99.90;;;;;;4967788;28;20042;-54
2022/03/26 05:40:11;;;;;;;118.55;63.05;;;4.60;99.90;;;;;;4978690;28;20106;-52
2022/03/26 05:42:38;;;;;;;123.28;64.00;;;4.60;99.90;;;;;;4964649;28;20441;-53
2022/03/26 05:45:06;;;;;;;124.30;65.03;;;4.60;99.90;;;;;;4970322;28;20675;-56
2022/03/26 05:47:32;;;;;;;115.75;60.70;;;4.60;99.90;;;;;;4967988;28;20049;-55
2022/03/26 05:49:58;;;;;;;118.82;64.45;;;4.60;99.90;;;;;;4969357;28;20045;-58
2022/03/26 05:52:24;;;;;;;122.93;62.22;;;4.60;99.90;;;;;;4965422;28;20042;-53
2022/03/26 05:54:50;;;;;;;121.50;64.75;;;4.70;99.90;;;;;;4971337;28;20039;-56
2022/03/26 05:57:15;;;;;;;122.03;62.75;;;4.70;99.90;;;;;;4972334;28;20060;-56
2022/03/26 05:59:41;;;;;;;120.13;60.90;;;4.70;99.90;;;;;;4968091;28;20214;-54
2022/03/26 06:02:10;;;;;;;106.90;59.58;;;4.70;99.90;;;;;;4952243;28;20046;-57
2022/03/26 06:04:36;;;;;;;112.18;60.08;;;4.70;99.90;;;;;;4968015;28;20093;-56
2022/03/26 06:07:02;;;;;;;98.35;54.33;;;4.70;99.90;;;;;;4983964;28;20038;-52
2022/03/26 06:09:28;;;;;;;98.45;52.72;;;4.70;99.90;;;;;;4943022;28;20046;-56
2022/03/26 06:11:53;;;;;;;83.30;47.03;;;4.70;99.90;;;;;;4961901;28;20136;-54
2022/03/26 06:14:19;;;;;;;74.97;42.55;;;4.80;99.90;;;;;;4964029;28;20141;-58
2022/03/26 06:16:45;;;;;;;83.45;47.13;;;4.80;99.90;;;;;;4951530;28;20994;-56
2022/03/26 06:19:12;;;;;;;68.50;40.97;;;4.80;99.90;;;;;;4956495;28;20042;-57
2022/03/26 06:21:38;;;;;;;76.90;45.03;;;4.90;99.90;;;;;;4958974;28;20038;-56
2022/03/26 06:24:05;;;;;;;77.60;45.92;;;5.00;99.90;;;;;;4958290;28;20370;-55
2022/03/26 06:26:31;;;;;;;78.85;47.05;;;5.00;99.90;;;;;;4957222;28;20050;-58
2022/03/26 06:28:57;;;;;;;64.25;40.67;;;5.00;99.90;;;;;;4958705;28;20050;-54
2022/03/26 06:31:24;;;;;;;76.97;45.53;;;5.00;99.90;;;;;;4974787;28;20039;-53
2022/03/26 06:33:50;;;;;;;71.72;42.40;;;5.10;99.90;;;;;;4975659;28;20113;-58
2022/03/26 06:36:18;;;;;;;64.70;41.13;;;5.20;99.90;;;;;;4965347;28;20045;-57
2022/03/26 06:38:44;;;;;;;75.88;43.58;;;5.30;99.90;;;;;;4966270;28;20047;-56
2022/03/26 06:41:10;;;;;;;76.38;42.97;;;5.40;99.90;;;;;;4971468;28;20046;-57
2022/03/26 06:43:40;;;;;;;79.15;43.92;;;5.50;99.90;;;;;;4963130;28;20126;-55
2022/03/26 06:46:06;;;;;;;83.82;46.92;;;5.60;99.90;;;;;;4951275;28;20132;-59
2022/03/26 06:48:33;;;;;;;81.82;45.92;;;5.70;99.90;;;;;;4933234;28;20042;-55
2022/03/26 06:51:02;;;;;;;82.82;47.25;;;5.80;99.90;;;;;;4977832;28;20061;-58
2022/03/26 06:53:33;;;;;;;103.40;51.70;;;6.00;99.90;;;;;;4973512;28;20438;-56
2022/03/26 06:55:59;;;;;;;110.68;55.75;;;6.10;99.90;;;;;;4965158;28;20039;-56
2022/03/26 06:58:25;;;;;;;118.72;60.75;;;6.30;99.90;;;;;;4958431;28;21496;-57
2022/03/26 07:00:51;;;;;;;138.48;66.82;;;6.50;99.90;;;;;;4957891;28;20124;-56
2022/03/26 07:03:17;;;;;;;135.13;69.25;;;6.70;99.90;;;;;;4968806;28;20502;-56
2022/03/26 07:05:44;;;;;;;137.45;64.45;;;6.90;99.90;;;;;;4950042;28;20120;-57
2022/03/26 07:08:10;;;;;;;128.27;61.55;;;7.10;99.90;;;;;;4965880;28;20129;-56
2022/03/26 07:10:36;;;;;;;143.90;70.93;;;7.20;99.90;;;;;;4969894;28;20198;-57
2022/03/26 07:13:03;;;;;;;145.73;68.65;;;7.30;99.90;;;;;;4963301;28;20154;-56
2022/03/26 07:15:31;;;;;;;145.60;70.93;;;7.50;99.90;;;;;;4955613;28;20051;-56
2022/03/26 07:17:57;;;;;;;141.13;66.80;;;7.60;99.90;;;;;;4975329;28;20042;-55
2022/03/26 07:20:25;;;;;;;131.23;70.57;;;7.80;99.90;;;;;;4974873;28;20275;-63
2022/03/26 07:22:51;;;;;;;135.65;68.35;;;7.90;99.90;;;;;;4957400;28;20118;-56
2022/03/26 07:25:16;;;;;;;135.27;69.03;;;8.00;99.90;;;;;;4973261;28;20049;-58
2022/03/26 07:27:42;;;;;;;130.85;68.32;;;8.20;99.90;;;;;;4986257;28;20116;-56
2022/03/26 07:30:09;;;;;;;127.43;66.85;;;8.30;99.90;;;;;;4971879;28;20100;-60
2022/03/26 07:32:35;;;;;;;134.77;69.18;;;8.40;99.90;;;;;;4977257;28;20044;-55
2022/03/26 07:35:02;;;;;;;126.03;68.35;;;8.50;99.90;;;;;;4977173;28;20523;-63
2022/03/26 07:37:27;;;;;;;121.22;65.18;;;8.60;99.90;;;;;;4963774;28;20100;-58
2022/03/26 07:39:53;;;;;;;124.70;65.70;;;8.80;99.90;;;;;;4977202;28;20042;-58
2022/03/26 07:42:19;;;;;;;127.43;65.38;;;8.80;99.90;;;;;;4979837;28;20537;-59
2022/03/26 07:44:44;;;;;;;116.68;63.65;;;9.00;99.90;;;;;;4962452;28;20566;-57
2022/03/26 07:47:10;;;;;;;116.28;61.58;;;9.00;99.90;;;;;;4976370;28;20053;-54
2022/03/26 07:49:36;;;;;;;118.68;65.72;;;9.10;99.90;;;;;;4972940;28;20042;-56
2022/03/26 07:52:03;;;;;;;122.75;65.32;;;9.20;99.90;;;;;;4971267;28;20077;-60
2022/03/26 07:54:28;;;;;;;119.68;65.22;;;9.20;99.90;;;;;;4961785;28;20222;-56
2022/03/26 07:56:54;;;;;;;122.93;65.82;;;9.30;99.90;;;;;;4970924;28;20050;-58
2022/03/26 07:59:20;;;;;;;129.40;68.05;;;9.40;99.90;;;;;;4978537;28;20041;-58
2022/03/26 08:01:45;;;;;;;116.18;62.35;;;9.50;99.90;;;;;;4959030;28;20034;-57
2022/03/26 08:04:12;;;;;;;114.68;65.15;;;9.50;99.90;;;;;;4975440;28;20272;-58
2022/03/26 08:06:38;;;;;;;111.35;60.50;;;9.60;99.90;;;;;;4965263;28;20366;-62
2022/03/26 08:09:04;;;;;;;112.28;59.28;;;9.70;99.90;;;;;;4968895;28;20039;-56
2022/03/26 08:11:29;;;;;;;107.72;60.22;;;9.90;99.90;;;;;;4955890;28;20801;-58
2022/03/26 08:13:55;;;;;;;111.55;59.75;;;10.00;99.90;;;;;;4969196;28;20262;-56
2022/03/26 08:16:21;;;;;;;107.63;57.88;;;10.10;99.90;;;;;;4968791;28;20101;-56
2022/03/26 08:18:47;;;;;;;94.00;54.63;;;10.30;99.90;;;;;;4968246;28;20039;-55
2022/03/26 08:21:14;;;;;;;96.80;54.20;;;10.40;99.90;;;;;;4968864;28;21103;-61
2022/03/26 08:23:41;;;;;;;92.80;51.22;;;10.50;99.90;;;;;;4977769;28;20085;-58
2022/03/26 08:26:23;;;;;;;96.95;53.75;;;10.60;99.90;;;;;;4976416;28;20038;-55
2022/03/26 08:28:53;;;;;;;95.18;49.92;;;10.80;99.90;;;;;;5018916;23;20054;-84
2022/03/26 08:31:20;;;;;;;88.38;50.45;;;11.00;99.90;;;;;;5002359;28;20026;-85
2022/03/26 08:33:46;;;;;;;85.95;46.95;;;11.10;99.90;;;;;;5001877;28;20129;-85
2022/03/26 08:36:13;;;;;;;77.93;45.33;;;11.30;99.90;;;;;;4988192;28;20686;-85
2022/03/26 08:38:47;;;;;;;78.70;42.92;;;11.40;99.90;;;;;;4968996;28;20113;-87
2022/03/26 08:41:14;;;;;;;67.55;40.92;;;11.50;99.90;;;;;;5004490;28;20030;-85
2022/03/26 08:43:40;;;;;;;66.82;39.90;;;11.70;99.90;;;;;;4984344;28;20072;-85
2022/03/26 08:46:06;;;;;;;65.05;39.28;;;11.80;99.90;;;;;;5002650;28;20046;-83
2022/03/26 08:48:32;;;;;;;76.03;42.15;;;12.00;99.90;;;;;;4974374;28;20045;-84
2022/03/26 08:50:59;;;;;;;62.97;38.58;;;12.10;99.90;;;;;;4985529;28;20038;-85
2022/03/26 08:53:24;;;;;;;67.97;41.58;;;12.20;99.90;;;;;;5005267;28;20046;-85
2022/03/26 08:55:51;;;;;;;71.93;41.08;;;12.50;99.90;;;;;;5006342;28;20064;-84
2022/03/26 08:58:18;;;;;;;63.30;38.85;;;12.40;99.90;;;;;;4990306;28;20033;-84
2022/03/26 09:00:48;;;;;;;53.38;35.22;;;12.50;99.90;;;;;;4991031;28;20042;-84
2022/03/26 09:03:15;;;;;;;57.40;35.35;;;12.70;99.70;;;;;;4990969;28;20180;-84
2022/03/26 09:05:44;;;;;;;60.03;37.38;;;12.80;99.70;;;;;;5009098;28;20046;-86
2022/03/26 09:08:09;;;;;;;59.40;36.05;;;12.90;99.60;;;;;;4999669;28;20108;-84
2022/03/26 09:10:35;;;;;;;55.88;34.05;;;13.00;99.40;;;;;;5000773;28;20042;-85
2022/03/26 09:13:01;;;;;;;60.30;38.90;;;13.10;99.10;;;;;;4989498;28;20129;-85
2022/03/26 09:15:27;;;;;;;61.25;38.85;;;13.20;99.10;;;;;;4970079;28;20411;-83
2022/03/26 09:17:53;;;;;;;57.30;36.30;;;13.30;99.10;;;;;;4991887;28;20101;-85
2022/03/26 09:20:18;;;;;;;57.88;35.63;;;13.40;99.20;;;;;;4974017;28;20042;-88
2022/03/26 09:22:44;;;;;;;60.10;38.13;;;13.40;99.20;;;;;;4983119;28;20049;-84
2022/03/26 09:25:10;;;;;;;56.60;36.90;;;13.60;99.40;;;;;;4992667;28;20084;-84
2022/03/26 09:27:36;;;;;;;51.55;32.63;;;13.70;99.50;;;;;;4993368;28;20038;-84
2022/03/26 09:30:03;;;;;;;47.80;31.13;;;13.90;99.40;;;;;;4994604;28;20080;-83
2022/03/26 09:32:29;;;;;;;46.20;30.95;;;14.00;98.40;;;;;;4994286;28;20045;-84
2022/03/26 09:34:55;;;;;;;47.80;31.77;;;14.10;98.20;;;;;;5022425;28;20041;-86
2022/03/26 09:37:21;;;;;;;51.78;32.92;;;14.00;97.50;;;;;;4985759;28;20049;-82
2022/03/26 09:39:49;;;;;;;46.53;32.00;;;14.20;97.80;;;;;;4958642;28;20037;-82
2022/03/26 09:42:15;;;;;;;42.25;29.10;;;14.30;97.90;;;;;;4991825;28;20454;-83
2022/03/26 09:44:41;;;;;;;40.13;25.80;;;14.40;96.70;;;;;;4995915;28;20038;-83
2022/03/26 09:47:08;;;;;;;32.15;22.55;;;14.40;96.40;;;;;;5008800;28;20563;-82
2022/03/26 09:49:39;;;;;;;38.17;24.75;;;14.40;95.00;;;;;;4989399;28;20101;-86
2022/03/26 09:52:08;;;;;;;;;;;14.60;95.80;;;;;;5001026;28;20117;-85
2022/03/26 09:54:35;;;;;;;29.27;20.33;;;14.70;93.90;;;;;;4990869;28;20062;-83
2022/03/26 09:57:03;;;;;;;28.77;20.60;;;14.80;95.20;;;;;;4994021;28;20044;-83
2022/03/26 09:59:29;;;;;;;28.02;20.90;;;15.00;95.10;;;;;;4996979;28;20071;-84
2022/03/26 10:01:55;;;;;;;29.60;20.65;;;15.20;94.70;;;;;;4976824;28;20041;-85
2022/03/26 10:04:23;;;;;;;30.17;20.15;;;15.30;93.60;;;;;;4970178;28;20121;-83
2022/03/26 10:06:54;;;;;;;29.30;18.70;;;15.10;92.30;;;;;;4998712;28;20635;-84
2022/03/26 10:09:35;;;;;;;25.45;17.20;;;15.20;92.70;;;;;;4999739;28;20124;-83
2022/03/26 10:12:12;;;;;;;23.90;14.48;;;15.40;92.60;;;;;;4995035;28;20049;-88
2022/03/26 10:14:45;;;;;;;20.60;14.40;;;15.50;91.30;;;;;;4990993;28;20129;-85
2022/03/26 10:17:16;;;;;;;19.63;14.25;;;15.70;91.30;;;;;;4992088;28;20037;-86
2022/03/26 10:19:54;;;;;;;21.60;14.40;;;15.80;89.80;;;;;;4997318;28;20511;-84
2022/03/26 10:22:40;;;;;;;19.83;13.00;;;15.70;86.70;;;;;;4975495;28;20073;-85
2022/03/26 10:25:23;;;;;;;19.40;14.27;;;15.70;87.70;;;;;;5003169;28;20133;-83
2022/03/26 10:27:55;;;;;;;18.02;11.65;;;15.80;90.10;;;;;;5001237;28;20411;-86
2022/03/26 10:33:27;;;;;;;14.32;9.60;;;16.20;87.60;;;;;;5003941;28;20053;-83
2022/03/26 10:35:59;;;;;;;11.70;8.82;;;16.20;85.60;;;;;;4985601;28;20042;-82
2022/03/26 10:38:41;;;;;;;16.30;9.93;;;16.30;85.70;;;;;;5006598;28;20184;-82
2022/03/26 10:41:08;;;;;;;14.93;10.10;;;16.50;84.10;;;;;;4970701;28;20037;-83
2022/03/26 10:43:39;;;;;;;15.93;10.23;;;16.60;84.20;;;;;;4989311;28;20084;-87
2022/03/26 10:46:05;;;;;;;15.60;10.15;;;16.70;84.10;;;;;;4972204;28;20048;-83
2022/03/26 10:48:33;;;;;;;16.60;11.00;;;16.90;83.00;;;;;;5002483;28;20046;-84
2022/03/26 10:51:07;;;;;;;14.45;10.50;;;17.00;83.10;;;;;;4988470;28;20072;-83
2022/03/26 10:53:43;;;;;;;14.30;9.68;;;16.90;78.90;;;;;;5004973;28;20097;-84
2022/03/26 10:56:11;;;;;;;16.45;9.10;;;16.80;80.60;;;;;;5005380;28;20136;-83
2022/03/26 10:58:38;;;;;;;13.43;8.32;;;16.70;80.10;;;;;;4968604;28;20041;-83
2022/03/26 11:01:05;;;;;;;13.90;8.63;;;16.80;80.40;;;;;;4947337;28;20053;-84
2022/03/26 11:03:34;;;;;;;14.23;9.10;;;16.80;80.00;;;;;;4969575;28;20475;-83
2022/03/26 11:06:00;;;;;;;12.18;8.27;;;16.90;80.20;;;;;;5020930;28;20048;-83
2022/03/26 11:08:32;;;;;;;15.20;8.82;;;16.90;80.30;;;;;;5005270;28;20038;-87
2022/03/26 11:11:01;;;;;;;14.70;8.70;;;16.90;78.90;;;;;;4991044;28;20819;-86
2022/03/26 11:13:28;;;;;;;12.30;8.95;;;17.00;79.50;;;;;;5007928;28;20088;-88
2022/03/26 11:16:02;;;;;;;9.55;7.38;;;17.20;79.90;;;;;;5003910;28;20407;-84
2022/03/26 11:19:08;;;;;;;9.65;6.68;;;17.30;78.00;;;;;;4982589;28;20112;-87
2022/03/26 11:21:34;;;;;;;9.57;6.78;;;17.30;76.20;;;;;;4997883;28;20129;-84
2022/03/26 11:24:22;;;;;;;9.93;7.35;;;17.00;77.10;;;;;;4989423;28;20584;-82
2022/03/26 11:27:09;;;;;;;9.50;7.05;;;17.00;77.50;;;;;;5001184;28;20044;-84
2022/03/26 11:29:40;;;;;;;8.52;6.68;;;17.10;78.10;;;;;;5004077;28;20046;-86
2022/03/26 11:32:21;;;;;;;9.63;5.65;;;17.10;76.40;;;;;;4986523;28;20045;-89
2022/03/26 11:34:56;;;;;;;9.20;5.57;;;17.10;74.50;;;;;;5007545;28;20095;-86
2022/03/26 11:37:22;;;;;;;9.82;7.10;;;17.30;75.90;;;;;;4996254;28;20037;-85
2022/03/26 11:39:51;;;;;;;10.07;6.25;;;17.50;75.80;;;;;;4993283;28;20041;-83
2022/03/26 11:42:35;;;;;;;10.82;6.53;;;17.70;76.00;;;;;;4965306;28;20046;-87
2022/03/26 11:51:20;;;;;;;10.35;6.05;;;17.60;74.40;;;;;;5005620;28;20269;-84
2022/03/26 11:53:49;;;;;;;8.45;5.47;;;17.70;73.30;;;;;;5002900;28;20045;-83
2022/03/26 11:56:22;;;;;;;10.95;5.28;;;17.60;72.20;;;;;;5006985;28;20041;-82
2022/03/26 11:59:16;;;;;;;10.13;5.28;;;17.60;71.70;;;;;;5001177;28;20030;-82
2022/03/26 12:01:47;;;;;;;7.50;4.60;;;17.40;72.20;;;;;;5007432;28;20077;-83
2022/03/26 12:04:16;;;;;;;9.93;4.90;;;17.50;73.30;;;;;;5002056;28;20042;-84
2022/03/26 12:06:54;;;;;;;9.15;5.07;;;17.70;74.40;;;;;;5027231;28;20042;-81
2022/03/26 12:09:35;;;;;;;8.98;4.75;;;17.80;71.50;;;;;;5011506;28;20045;-81
2022/03/26 12:12:13;;;;;;;8.43;4.10;;;17.80;72.70;;;;;;5009723;28;20038;-80
2022/03/26 12:15:12;;;;;;;6.25;4.10;;;17.90;70.80;;;;;;4995162;28;20488;-78
2022/03/26 12:17:45;;;;;;;6.82;4.45;;;18.00;72.10;;;;;;4985195;28;20077;-77
2022/03/26 12:20:26;;;;;;;6.30;3.85;;;18.00;70.00;;;;;;5007535;28;20591;-80
2022/03/26 12:23:12;;;;;;;9.75;6.50;;;17.70;70.10;;;;;;5005506;28;20058;-84
2022/03/26 12:25:46;;;;;;;7.85;4.68;;;17.60;71.10;;;;;;5006093;28;20038;-79
2022/03/26 12:28:38;;;;;;;7.35;4.40;;;17.80;72.60;;;;;;4984646;28;20057;-80
2022/03/26 12:31:13;;;;;;;9.48;4.40;;;18.10;72.90;;;;;;5001981;28;20499;-82
2022/03/26 12:33:40;;;;;;;8.00;4.13;;;18.40;71.80;;;;;;4985823;28;20052;-80
2022/03/26 12:36:06;;;;;;;8.60;4.53;;;18.30;70.30;;;;;;4992381;28;20034;-83
2022/03/26 12:38:32;;;;;;;6.82;4.53;;;18.10;70.20;;;;;;4957722;28;20061;-84
2022/03/26 12:41:01;;;;;;;7.25;3.90;;;18.00;72.20;;;;;;4976920;28;20053;-82
2022/03/26 12:43:28;;;;;;;7.18;4.15;;;18.20;72.70;;;;;;4979165;28;20042;-84
2022/03/26 12:45:55;;;;;;;6.13;3.65;;;18.30;71.90;;;;;;4994244;28;20064;-82